Terminal Aerodrome Forecast
Issued by NWS

Home | Current Version | Previous Version | Text Only | Print | Product List | Glossary On
Versions: 1 2 3 4 5 6 7 8 9 10 11 12 13 14
000
FTUS41 KLWX 191100
TAFMTN
TAF
KMTN 191131Z 1912/2012 01003KT P6SM BKN150
     FM191900 03006KT P6SM BKN250
     FM192100 01012KT P6SM SCT250
     FM192300 01005KT P6SM SCT250
     FM201100 03006KT P6SM FEW250=

USA.gov is the U.S. government's official web portal to all federal, state and local government web resources and services.